Afton, Iowa
Current Conditions -  °F | °C
As of 1:35 PM on Monday 22 Dec 2014 (Local Time) from KCSQ Reporting Station
Unknown Precip Unknown Precip  
Wind Chill: 34°   Ceiling: 500
Heat Index: 41°   Visibility: 4mi
Dew Point: 41°   Wind: 13mph
Humidity: 100%   Direction: 150°SSE
Pressure: 29.45"   Gusts: NA
Location:  41.03°N, 94.2°W
Report Text: KCSQ 221935Z AUTO 15011KT 4SM -UP OVC005 05/05 A2945 RMK AO2
Loading
Personal Weather Stations






























Interactive Weather Map New forecast layout! Learn more

10-Day Weather Forecast

Advertisements
Track Severe Weather on mobile